Time;durP1;ratioP1;P1;durP2;ratioP2;P2;SDS_P1;SDS_P2;PMS_P1;PMS_P2;Temp;Humidity;BMP_temperature;BMP_pressure;BME280_temperature;BME280_humidity;BME280_pressure;Samples;Min_cycle;Max_cycle;Signal;HPM_P1;HPM_P2
2021/11/23 00:02:17;;;;;;;11.00;10.50;;;5.80;71.40;;;;;;5053322;28;20036;-78
2021/11/23 00:04:43;;;;;;;11.40;10.90;;;5.80;71.50;;;;;;5051440;28;20037;-77
2021/11/23 00:07:09;;;;;;;13.90;13.27;;;5.80;71.50;;;;;;5052559;28;20048;-77
2021/11/23 00:09:36;;;;;;;12.20;11.60;;;5.70;71.50;;;;;;5052535;28;20474;-78
2021/11/23 00:12:02;;;;;;;10.03;9.57;;;5.70;71.60;;;;;;5051955;28;20405;-77
2021/11/23 00:14:28;;;;;;;15.33;14.63;;;5.70;71.60;;;;;;5052337;28;20041;-78
2021/11/23 00:16:54;;;;;;;11.60;11.10;;;5.60;71.60;;;;;;5052414;28;20036;-77
2021/11/23 00:19:20;;;;;;;9.80;9.40;;;5.60;71.70;;;;;;5052082;28;20725;-78
2021/11/23 00:21:46;;;;;;;9.67;9.17;;;5.60;71.70;;;;;;5054020;28;20044;-78
2021/11/23 00:24:12;;;;;;;9.20;8.80;;;5.60;71.80;;;;;;5049888;28;20478;-78
2021/11/23 00:26:38;;;;;;;10.10;9.60;;;5.60;71.80;;;;;;5051996;28;20032;-78
2021/11/23 00:29:04;;;;;;;14.70;14.00;;;5.60;71.90;;;;;;5053307;28;20397;-78
2021/11/23 00:31:31;;;;;;;19.33;18.43;;;5.60;71.90;;;;;;5052930;28;20029;-77
2021/11/23 00:33:57;;;;;;;9.50;9.00;;;5.50;71.80;;;;;;5052164;28;20482;-78
2021/11/23 00:36:23;;;;;;;9.13;8.73;;;5.50;71.90;;;;;;5035125;28;20037;-78
2021/11/23 00:38:49;;;;;;;8.60;8.20;;;5.50;72.00;;;;;;5052900;28;20437;-78
2021/11/23 00:41:17;;;;;;;8.73;8.33;;;5.50;72.00;;;;;;5051525;28;20039;-78
2021/11/23 00:43:43;;;;;;;9.87;9.43;;;5.50;72.10;;;;;;5051795;28;20033;-77
2021/11/23 00:46:09;;;;;;;9.07;8.57;;;5.40;72.10;;;;;;5051335;28;20040;-77
2021/11/23 00:48:35;;;;;;;9.30;8.90;;;5.40;72.10;;;;;;5051910;28;20036;-77
2021/11/23 00:51:02;;;;;;;11.27;10.67;;;5.40;72.20;;;;;;5052811;28;20024;-78
2021/11/23 00:53:28;;;;;;;8.47;7.97;;;5.40;72.20;;;;;;5052747;28;20470;-77
2021/11/23 00:55:56;;;;;;;11.50;11.00;;;5.40;72.20;;;;;;5052203;28;20474;-78
2021/11/23 00:58:22;;;;;;;8.47;8.03;;;5.40;72.20;;;;;;5051712;28;20029;-78
2021/11/23 01:00:50;;;;;;;8.23;7.83;;;5.40;72.30;;;;;;5035095;28;20482;-77
2021/11/23 01:03:17;;;;;;;9.50;9.10;;;5.40;72.30;;;;;;5052411;28;20502;-78
2021/11/23 01:05:45;;;;;;;8.50;8.10;;;5.40;72.30;;;;;;5050906;28;20041;-77
2021/11/23 01:08:12;;;;;;;9.43;8.97;;;5.40;72.30;;;;;;5052150;28;20059;-77
2021/11/23 01:10:38;;;;;;;8.07;7.67;;;5.30;72.30;;;;;;5051861;28;20192;-78
2021/11/23 01:13:04;;;;;;;8.03;7.63;;;5.30;72.40;;;;;;5052762;28;20027;-78
2021/11/23 01:15:30;;;;;;;8.77;8.37;;;5.30;72.50;;;;;;5051082;28;20040;-78
2021/11/23 01:17:56;;;;;;;8.70;8.30;;;5.20;72.40;;;;;;5029713;28;20045;-77
2021/11/23 01:20:23;;;;;;;8.47;8.03;;;5.20;72.50;;;;;;5044614;28;20029;-77
2021/11/23 01:22:49;;;;;;;8.63;8.23;;;5.20;72.60;;;;;;5050839;28;20032;-77
2021/11/23 01:25:15;;;;;;;12.57;11.97;;;5.20;72.70;;;;;;5050487;28;20033;-78
2021/11/23 01:27:41;;;;;;;14.90;14.20;;;5.20;72.70;;;;;;5033975;28;20033;-78
2021/11/23 01:30:09;;;;;;;9.60;9.20;;;5.10;72.70;;;;;;5050420;28;20501;-78
2021/11/23 01:32:35;;;;;;;9.73;9.33;;;5.10;72.80;;;;;;5050817;28;20032;-77
2021/11/23 01:35:01;;;;;;;13.63;13.00;;;5.10;72.90;;;;;;5032682;28;20052;-78
2021/11/23 01:37:27;;;;;;;10.77;10.27;;;5.10;72.90;;;;;;5051719;28;20049;-77
2021/11/23 01:39:54;;;;;;;12.30;11.70;;;5.10;72.90;;;;;;5051073;28;20037;-78
2021/11/23 01:42:20;;;;;;;11.23;10.73;;;5.10;73.00;;;;;;5033465;28;20063;-77
2021/11/23 01:44:46;;;;;;;15.20;14.50;;;5.00;73.00;;;;;;5051860;28;20037;-78
2021/11/23 01:47:12;;;;;;;18.73;17.83;;;5.00;73.00;;;;;;5051032;28;20052;-78
2021/11/23 01:49:38;;;;;;;14.50;13.80;;;5.00;73.10;;;;;;5050405;28;20033;-78
2021/11/23 01:52:05;;;;;;;15.43;14.63;;;5.00;73.20;;;;;;5051632;28;20044;-78
2021/11/23 01:54:32;;;;;;;19.67;18.77;;;5.00;73.20;;;;;;5051375;28;20028;-78
2021/11/23 01:56:58;;;;;;;11.00;10.50;;;5.00;73.30;;;;;;5050345;28;20033;-77
2021/11/23 01:59:24;;;;;;;10.03;9.53;;;4.90;73.40;;;;;;5029134;28;20033;-77
2021/11/23 02:01:51;;;;;;;10.17;9.67;;;4.90;73.50;;;;;;5034676;28;20026;-77
2021/11/23 02:04:17;;;;;;;10.10;9.53;;;4.90;73.60;;;;;;5049656;28;20033;-78
2021/11/23 02:06:43;;;;;;;8.70;8.30;;;4.90;73.60;;;;;;5051589;28;20045;-77
2021/11/23 02:09:09;;;;;;;9.60;9.20;;;4.90;73.60;;;;;;5050049;28;20029;-77
2021/11/23 02:11:36;;;;;;;9.47;9.07;;;4.90;73.60;;;;;;5048510;28;20051;-78
2021/11/23 02:14:03;;;;;;;16.53;15.77;;;4.90;73.60;;;;;;5051290;28;20044;-78
2021/11/23 02:16:30;;;;;;;10.83;9.90;;;4.90;73.60;;;;;;5049618;28;20072;-78
2021/11/23 02:18:57;;;;;;;9.53;9.13;;;4.80;73.70;;;;;;5049788;28;20036;-78
2021/11/23 02:21:23;;;;;;;9.30;8.80;;;4.90;73.80;;;;;;5051028;28;20462;-77
2021/11/23 02:23:49;;;;;;;15.17;14.40;;;4.90;73.90;;;;;;5051286;28;20029;-78
2021/11/23 02:26:15;;;;;;;16.10;15.37;;;4.90;73.80;;;;;;5049138;28;20037;-77
2021/11/23 02:28:41;;;;;;;10.37;9.87;;;4.80;73.90;;;;;;5049147;28;20401;-78
2021/11/23 02:31:08;;;;;;;11.20;10.70;;;4.80;74.00;;;;;;5050960;28;20402;-78
2021/11/23 02:33:34;;;;;;;9.70;9.30;;;4.80;74.10;;;;;;5048503;28;20033;-78
2021/11/23 02:36:01;;;;;;;9.27;8.83;;;4.80;74.10;;;;;;5049595;28;20040;-77
2021/11/23 02:38:28;;;;;;;10.10;9.63;;;4.80;74.10;;;;;;5050915;28;20029;-78
2021/11/23 02:40:54;;;;;;;12.23;11.63;;;4.80;74.20;;;;;;5048793;28;20059;-78
2021/11/23 02:43:21;;;;;;;10.17;9.67;;;4.80;75.00;;;;;;5051139;28;20044;-77
2021/11/23 02:45:47;;;;;;;9.27;8.87;;;4.70;74.20;;;;;;5051271;28;20048;-78
2021/11/23 02:48:13;;;;;;;10.80;10.17;;;4.70;74.20;;;;;;5049575;28;20043;-77
2021/11/23 02:50:43;;;;;;;23.33;22.20;;;4.70;74.30;;;;;;5049047;28;20037;-78
2021/11/23 02:53:09;;;;;;;23.67;22.53;;;4.70;74.30;;;;;;5049906;28;20032;-77
2021/11/23 02:55:36;;;;;;;27.77;26.40;;;4.70;74.40;;;;;;5048820;28;20033;-78
2021/11/23 02:58:03;;;;;;;12.50;11.50;;;4.70;74.40;;;;;;5051107;28;20033;-78
2021/11/23 03:00:29;;;;;;;18.07;17.23;;;4.70;74.40;;;;;;5050759;28;20406;-77
2021/11/23 03:02:56;;;;;;;8.73;8.33;;;4.70;74.50;;;;;;5045446;28;20029;-78
2021/11/23 03:05:23;;;;;;;9.37;8.97;;;4.70;74.60;;;;;;5040910;28;20048;-78
2021/11/23 03:07:49;;;;;;;8.57;8.17;;;4.70;74.70;;;;;;5044702;28;20404;-78
2021/11/23 03:10:16;;;;;;;37.67;35.83;;;4.70;74.60;;;;;;5045837;28;20044;-77
2021/11/23 03:12:45;;;;;;;10.20;9.73;;;4.70;74.70;;;;;;5030932;28;20056;-78
2021/11/23 03:15:11;;;;;;;8.63;8.23;;;4.70;74.70;;;;;;5043934;28;20045;-77
2021/11/23 03:17:37;;;;;;;72.53;68.67;;;4.70;74.80;;;;;;5045706;28;20021;-78
2021/11/23 03:20:05;;;;;;;8.37;7.97;;;4.70;74.80;;;;;;5073494;28;20032;-77
2021/11/23 03:22:31;;;;;;;9.07;8.63;;;4.70;74.90;;;;;;5077723;28;20025;-78
2021/11/23 03:24:57;;;;;;;8.33;7.93;;;4.60;74.80;;;;;;5047685;28;20036;-77
2021/11/23 03:27:23;;;;;;;12.50;11.90;;;4.60;74.90;;;;;;5045615;28;20033;-78
2021/11/23 03:29:49;;;;;;;9.40;8.90;;;4.60;74.80;;;;;;5045104;28;20033;-78
2021/11/23 03:32:15;;;;;;;9.60;9.20;;;4.60;74.80;;;;;;5049279;28;20041;-78
2021/11/23 03:34:43;;;;;;;8.60;8.20;;;4.60;74.80;;;;;;5049311;28;20044;-78
2021/11/23 03:37:11;;;;;;;15.30;14.47;;;4.60;74.80;;;;;;5053692;28;20605;-78
2021/11/23 03:39:37;;;;;;;11.67;11.10;;;4.60;74.80;;;;;;5051488;28;20025;-78
2021/11/23 03:42:04;;;;;;;8.60;8.20;;;4.60;74.90;;;;;;5052749;28;20481;-78
2021/11/23 03:44:30;;;;;;;9.70;9.30;;;4.50;74.90;;;;;;5053124;28;20029;-78
2021/11/23 03:46:56;;;;;;;9.10;8.70;;;4.50;75.00;;;;;;5053690;28;20051;-78
2021/11/23 03:49:22;;;;;;;8.83;8.43;;;4.50;75.10;;;;;;5052668;28;20036;-78
2021/11/23 03:51:49;;;;;;;9.17;8.77;;;4.50;75.10;;;;;;5054210;28;20033;-79
2021/11/23 03:54:15;;;;;;;26.23;24.97;;;4.50;75.10;;;;;;5053983;28;20033;-77
2021/11/23 03:56:41;;;;;;;8.50;8.10;;;4.50;75.20;;;;;;5052736;28;20397;-77
2021/11/23 03:59:08;;;;;;;8.87;8.37;;;4.50;75.20;;;;;;5052637;28;20029;-77
2021/11/23 04:01:34;;;;;;;9.70;9.27;;;4.40;75.30;;;;;;5052139;28;20029;-77
2021/11/23 04:04:00;;;;;;;9.20;8.80;;;4.40;75.30;;;;;;5053718;28;20025;-78
2021/11/23 04:06:27;;;;;;;8.10;7.70;;;4.40;75.30;;;;;;5053526;28;20040;-78
2021/11/23 04:08:53;;;;;;;8.60;8.20;;;4.40;75.40;;;;;;5053467;28;20033;-78
2021/11/23 04:11:19;;;;;;;18.40;17.53;;;4.40;75.40;;;;;;5052104;28;20032;-77
2021/11/23 04:13:45;;;;;;;9.00;8.40;;;4.40;75.40;;;;;;5052033;28;20048;-77
2021/11/23 04:16:12;;;;;;;8.53;8.13;;;4.40;76.20;;;;;;5053222;28;20029;-77
2021/11/23 04:18:38;;;;;;;8.53;8.13;;;4.40;75.40;;;;;;5052314;28;20378;-77
2021/11/23 04:21:04;;;;;;;8.63;8.23;;;4.40;75.40;;;;;;5052188;28;20058;-78
2021/11/23 04:23:30;;;;;;;8.93;8.53;;;4.40;75.30;;;;;;5031147;28;20033;-77
2021/11/23 04:25:56;;;;;;;9.67;9.27;;;4.40;75.30;;;;;;5052609;28;20038;-78
2021/11/23 04:28:22;;;;;;;9.30;8.90;;;4.40;75.40;;;;;;5033515;28;20078;-77
2021/11/23 04:30:48;;;;;;;8.37;7.97;;;4.40;75.40;;;;;;5035401;28;20040;-77
2021/11/23 04:33:15;;;;;;;8.30;7.90;;;4.40;75.50;;;;;;5053054;28;20033;-78
2021/11/23 04:35:41;;;;;;;8.57;8.17;;;4.30;75.50;;;;;;5051648;28;20025;-77
2021/11/23 04:38:08;;;;;;;9.30;8.77;;;4.30;75.50;;;;;;5053144;28;20032;-77
2021/11/23 04:40:34;;;;;;;8.93;8.53;;;4.30;75.50;;;;;;5051111;28;20381;-77
2021/11/23 04:43:01;;;;;;;9.87;9.43;;;4.30;75.60;;;;;;5032120;28;20034;-77
2021/11/23 04:45:28;;;;;;;9.53;9.03;;;4.30;75.60;;;;;;5052311;28;20382;-77
2021/11/23 04:47:55;;;;;;;15.87;15.10;;;4.30;75.70;;;;;;5050011;28;20045;-78
2021/11/23 04:50:21;;;;;;;8.70;8.30;;;4.30;75.70;;;;;;5051822;28;20028;-78
2021/11/23 04:52:47;;;;;;;8.87;8.47;;;4.20;75.70;;;;;;5033506;28;20040;-77
2021/11/23 04:55:13;;;;;;;8.37;7.97;;;4.20;75.70;;;;;;5052572;28;20021;-78
2021/11/23 04:57:39;;;;;;;7.70;7.33;;;4.20;75.70;;;;;;5053365;28;20044;-77
2021/11/23 05:00:07;;;;;;;9.50;9.07;;;4.20;75.70;;;;;;5051152;28;20033;-78
2021/11/23 05:02:33;;;;;;;8.80;8.33;;;4.20;75.70;;;;;;5029422;28;20037;-78
2021/11/23 05:04:59;;;;;;;9.10;8.70;;;4.20;75.80;;;;;;5041616;28;20025;-78
2021/11/23 05:07:25;;;;;;;9.10;8.70;;;4.20;75.90;;;;;;5050910;28;20045;-78
2021/11/23 05:09:51;;;;;;;8.90;8.40;;;4.20;75.90;;;;;;5046716;28;20263;-77
2021/11/23 05:12:17;;;;;;;8.37;7.93;;;4.20;75.90;;;;;;5052716;28;20474;-78
2021/11/23 05:14:43;;;;;;;7.87;7.50;;;4.10;75.80;;;;;;5051325;28;20521;-78
2021/11/23 05:17:09;;;;;;;8.70;8.30;;;4.20;76.60;;;;;;5050441;28;20247;-77
2021/11/23 05:19:36;;;;;;;10.87;10.37;;;4.20;75.90;;;;;;5052271;28;20029;-77
2021/11/23 05:22:03;;;;;;;29.97;28.50;;;4.20;75.90;;;;;;5051122;28;20044;-77
2021/11/23 05:24:29;;;;;;;8.37;7.97;;;4.10;75.80;;;;;;5051256;28;20052;-77
2021/11/23 05:26:56;;;;;;;9.27;8.87;;;4.10;75.90;;;;;;5050965;28;20032;-78
2021/11/23 05:29:22;;;;;;;10.37;9.87;;;4.10;75.90;;;;;;5051803;28;20029;-77
2021/11/23 05:31:48;;;;;;;9.20;8.80;;;4.10;75.90;;;;;;5050319;28;20033;-77
2021/11/23 05:34:14;;;;;;;9.67;9.23;;;4.10;76.00;;;;;;5050735;28;20029;-77
2021/11/23 05:36:40;;;;;;;8.60;8.20;;;4.10;76.00;;;;;;5052214;28;20029;-77
2021/11/23 05:39:06;;;;;;;9.47;9.07;;;4.10;76.00;;;;;;5051779;28;20029;-78
2021/11/23 05:41:32;;;;;;;7.90;7.50;;;4.10;76.10;;;;;;5028818;28;20505;-78
2021/11/23 05:43:59;;;;;;;18.87;17.97;;;4.00;76.00;;;;;;5051111;28;20025;-77
2021/11/23 05:46:25;;;;;;;7.87;7.47;;;4.00;76.10;;;;;;5050115;28;20033;-77
2021/11/23 05:48:52;;;;;;;15.30;14.60;;;4.00;76.10;;;;;;5051286;28;20485;-77
2021/11/23 05:51:19;;;;;;;11.50;11.00;;;4.00;76.10;;;;;;5051408;28;20032;-79
2021/11/23 05:53:45;;;;;;;17.30;16.50;;;4.00;76.10;;;;;;5050943;28;20032;-78
2021/11/23 05:56:11;;;;;;;9.80;9.30;;;4.00;76.20;;;;;;5048309;28;20021;-79
2021/11/23 05:58:38;;;;;;;9.60;9.20;;;4.00;76.20;;;;;;5051226;28;20424;-79
2021/11/23 06:01:04;;;;;;;12.03;11.50;;;4.00;76.20;;;;;;5082623;28;20482;-78
2021/11/23 06:03:31;;;;;;;8.27;7.87;;;4.00;76.20;;;;;;5050553;28;20032;-79
2021/11/23 06:05:57;;;;;;;12.43;11.83;;;4.00;76.20;;;;;;5049720;28;20033;-79
2021/11/23 06:08:23;;;;;;;15.13;14.43;;;4.00;76.20;;;;;;5050065;28;20037;-78
2021/11/23 06:10:49;;;;;;;11.23;10.73;;;3.90;76.10;;;;;;5050929;28;20029;-79
2021/11/23 06:13:16;;;;;;;16.13;15.40;;;3.90;76.20;;;;;;5049837;28;20037;-78
2021/11/23 06:15:45;;;;;;;13.83;13.13;;;3.90;76.20;;;;;;5033494;28;20413;-78
2021/11/23 06:18:14;;;;;;;7.97;7.57;;;3.90;76.20;;;;;;5049953;28;20489;-79
2021/11/23 06:20:50;;;;;;;8.30;7.90;;;3.90;76.20;;;;;;5049391;28;20390;-78
2021/11/23 06:23:18;;;;;;;8.80;8.27;;;3.90;76.30;;;;;;5050141;28;20036;-79
2021/11/23 06:25:45;;;;;;;8.60;8.20;;;3.90;76.30;;;;;;5049957;28;20025;-79
2021/11/23 06:28:15;;;;;;;8.13;7.73;;;3.90;77.00;;;;;;5049575;28;20112;-78
2021/11/23 06:30:41;;;;;;;7.93;7.53;;;3.90;76.30;;;;;;5049840;28;20485;-79
2021/11/23 06:33:07;;;;;;;8.13;7.73;;;3.80;76.30;;;;;;5049709;28;20032;-78
2021/11/23 06:35:34;;;;;;;8.50;8.10;;;3.80;76.30;;;;;;5049768;28;20033;-79
2021/11/23 06:38:00;;;;;;;9.20;8.70;;;3.80;76.30;;;;;;5050885;28;20025;-78
2021/11/23 06:40:26;;;;;;;8.60;8.20;;;3.80;76.40;;;;;;5049459;28;20029;-79
2021/11/23 06:42:52;;;;;;;8.33;7.93;;;3.80;76.40;;;;;;5050348;28;20327;-79
2021/11/23 06:45:18;;;;;;;9.07;8.57;;;3.80;76.40;;;;;;5048836;28;20029;-78
2021/11/23 06:47:46;;;;;;;8.33;7.93;;;3.80;76.40;;;;;;5048947;28;20048;-79
2021/11/23 06:50:12;;;;;;;8.13;7.73;;;3.80;76.40;;;;;;5055530;28;20486;-79
2021/11/23 06:52:38;;;;;;;8.30;7.90;;;3.80;76.40;;;;;;5048934;28;20096;-78
2021/11/23 06:55:05;;;;;;;8.23;7.83;;;3.80;76.40;;;;;;5046602;28;20417;-78
2021/11/23 06:57:31;;;;;;;8.77;8.37;;;3.70;76.40;;;;;;5055757;28;20041;-79
2021/11/23 06:59:57;;;;;;;8.23;7.83;;;3.70;76.40;;;;;;5049614;28;20402;-79
2021/11/23 07:02:23;;;;;;;11.00;10.43;;;3.70;76.40;;;;;;5050335;28;20048;-78
2021/11/23 07:04:49;;;;;;;11.90;11.33;;;3.70;76.40;;;;;;5050404;28;20029;-78
2021/11/23 07:07:15;;;;;;;8.67;8.27;;;3.70;76.40;;;;;;5052957;28;20041;-80
2021/11/23 07:09:42;;;;;;;9.47;8.87;;;3.70;76.40;;;;;;5053559;28;20033;-81
2021/11/23 07:12:09;;;;;;;8.27;7.87;;;3.70;76.50;;;;;;5053386;28;20028;-81
2021/11/23 07:14:36;;;;;;;8.63;8.23;;;3.60;76.50;;;;;;5052820;28;20052;-81
2021/11/23 07:17:02;;;;;;;8.23;7.83;;;3.60;76.50;;;;;;5054763;28;20528;-78
2021/11/23 07:19:28;;;;;;;9.30;8.80;;;3.60;76.50;;;;;;5055845;28;20045;-83
2021/11/23 07:21:55;;;;;;;7.90;7.50;;;3.70;76.60;;;;;;5087534;28;20032;-79
2021/11/23 07:24:21;;;;;;;8.53;8.13;;;3.80;76.70;;;;;;5056371;28;20033;-78
2021/11/23 07:26:47;;;;;;;8.33;7.93;;;3.80;76.40;;;;;;5054513;28;20123;-79
2021/11/23 07:29:13;;;;;;;11.37;10.83;;;3.80;76.40;;;;;;5054553;28;20056;-79
2021/11/23 07:31:39;;;;;;;11.00;10.50;;;3.80;76.30;;;;;;5055326;28;20041;-78
2021/11/23 07:34:06;;;;;;;8.37;7.97;;;3.70;76.30;;;;;;5055153;28;20043;-77
2021/11/23 07:36:32;;;;;;;8.37;7.97;;;3.70;76.30;;;;;;5053363;28;20025;-79
2021/11/23 07:39:00;;;;;;;8.80;8.40;;;3.70;76.40;;;;;;5053944;28;20430;-81
2021/11/23 07:41:26;;;;;;;9.73;8.77;;;3.70;76.50;;;;;;5054164;28;20040;-81
2021/11/23 07:43:52;;;;;;;8.70;8.30;;;3.60;76.50;;;;;;5055122;28;20033;-80
2021/11/23 07:46:18;;;;;;;8.17;7.70;;;3.60;76.50;;;;;;5054687;28;20037;-79
2021/11/23 07:48:45;;;;;;;8.27;7.87;;;3.60;76.50;;;;;;5036966;28;20052;-79
2021/11/23 07:51:12;;;;;;;8.50;8.10;;;3.70;76.50;;;;;;5033327;28;20481;-80
2021/11/23 07:53:38;;;;;;;8.33;7.83;;;3.60;76.50;;;;;;5086596;28;20033;-82
2021/11/23 07:56:05;;;;;;;8.83;8.43;;;3.60;76.50;;;;;;5053571;28;20033;-80
2021/11/23 07:58:31;;;;;;;8.90;8.20;;;3.70;76.50;;;;;;5071468;28;20031;-80
2021/11/23 08:00:57;;;;;;;7.60;7.30;;;3.70;76.50;;;;;;5054110;28;20051;-81
2021/11/23 08:03:24;;;;;;;8.67;8.27;;;3.70;76.50;;;;;;5051846;28;20047;-80
2021/11/23 08:05:50;;;;;;;8.57;8.17;;;3.70;76.50;;;;;;5054431;28;20033;-80
2021/11/23 08:08:16;;;;;;;9.00;8.50;;;3.70;76.50;;;;;;5054985;28;20489;-79
2021/11/23 08:10:42;;;;;;;8.07;7.67;;;3.70;76.40;;;;;;5054927;28;20044;-79
2021/11/23 08:13:08;;;;;;;8.23;7.83;;;3.70;76.40;;;;;;5069069;28;20481;-79
2021/11/23 08:15:36;;;;;;;9.57;8.87;;;3.80;76.40;;;;;;5051878;28;20049;-79
2021/11/23 08:18:06;;;;;;;9.30;8.90;;;3.80;76.40;;;;;;5052868;28;20036;-77
2021/11/23 08:20:32;;;;;;;9.57;9.17;;;3.80;76.30;;;;;;5053163;28;20041;-77
2021/11/23 08:22:58;;;;;;;14.07;13.37;;;3.80;76.20;;;;;;5052273;28;20032;-77
2021/11/23 08:25:25;;;;;;;11.20;10.70;;;3.90;76.20;;;;;;5053280;28;20394;-77
2021/11/23 08:27:51;;;;;;;15.90;15.17;;;3.90;76.10;;;;;;5049784;28;20048;-77
2021/11/23 08:30:17;;;;;;;10.07;9.57;;;4.00;76.10;;;;;;5051457;28;20041;-80
2021/11/23 08:32:43;;;;;;;8.47;8.07;;;4.00;76.10;;;;;;5051618;28;20033;-80
2021/11/23 08:35:09;;;;;;;8.37;7.97;;;4.00;76.00;;;;;;5051911;28;20028;-80
2021/11/23 08:37:36;;;;;;;36.37;34.53;;;4.10;75.90;;;;;;5051765;28;20040;-77
2021/11/23 08:40:04;;;;;;;8.10;7.70;;;4.20;75.80;;;;;;5051577;28;20021;-77
2021/11/23 08:42:30;;;;;;;9.07;8.50;;;4.20;75.60;;;;;;5053645;28;20613;-77
2021/11/23 08:44:56;;;;;;;7.83;7.47;;;4.20;75.60;;;;;;5051941;28;20082;-77
2021/11/23 08:47:23;;;;;;;9.90;9.40;;;4.30;75.60;;;;;;5050736;28;20044;-77
2021/11/23 08:49:49;;;;;;;33.67;31.87;;;4.40;75.50;;;;;;5051212;28;20032;-78
2021/11/23 08:52:15;;;;;;;30.23;28.77;;;4.40;75.30;;;;;;5051247;28;20504;-76
2021/11/23 08:54:42;;;;;;;12.93;12.33;;;4.50;75.20;;;;;;5052323;28;20390;-79
2021/11/23 08:57:09;;;;;;;9.60;9.10;;;4.50;74.90;;;;;;5052809;28;20048;-81
2021/11/23 08:59:39;;;;;;;9.73;9.33;;;4.70;74.90;;;;;;5050974;28;20029;-81
2021/11/23 09:02:06;;;;;;;17.30;16.50;;;4.70;74.70;;;;;;5050557;28;20434;-81
2021/11/23 09:04:34;;;;;;;8.83;8.43;;;4.70;74.50;;;;;;5050953;28;20040;-81
2021/11/23 09:07:06;;;;;;;8.90;8.50;;;4.80;74.30;;;;;;5052248;28;20025;-79
2021/11/23 09:09:32;;;;;;;11.80;11.30;;;4.80;74.10;;;;;;5061773;28;20041;-79
2021/11/23 09:12:01;;;;;;;13.20;12.60;;;4.90;74.00;;;;;;5047856;28;20025;-79
2021/11/23 09:14:31;;;;;;;8.97;8.57;;;5.00;73.90;;;;;;5050841;28;20410;-79
2021/11/23 09:16:58;;;;;;;12.70;12.10;;;5.00;73.70;;;;;;5049729;28;20033;-79
2021/11/23 09:19:25;;;;;;;11.83;11.23;;;5.10;73.50;;;;;;5050932;28;20036;-79
2021/11/23 09:21:51;;;;;;;11.37;10.87;;;5.20;73.40;;;;;;5030723;28;20100;-79
2021/11/23 09:24:17;;;;;;;12.70;12.10;;;5.30;73.20;;;;;;5050921;28;20041;-79
2021/11/23 09:26:46;;;;;;;9.73;9.23;;;5.50;72.90;;;;;;5051316;28;20043;-79
2021/11/23 09:29:14;;;;;;;12.23;11.63;;;5.70;72.50;;;;;;5051868;28;20040;-80
2021/11/23 09:31:41;;;;;;;11.23;10.63;;;5.90;71.90;;;;;;5050556;28;20044;-79
2021/11/23 09:34:07;;;;;;;9.97;9.47;;;6.00;71.40;;;;;;5052109;28;20029;-80
2021/11/23 09:36:33;;;;;;;13.53;12.83;;;6.10;70.90;;;;;;5050107;28;20036;-83
2021/11/23 09:38:59;;;;;;;10.80;10.20;;;6.10;70.80;;;;;;5050369;28;20041;-80
2021/11/23 09:41:26;;;;;;;10.47;9.97;;;6.10;70.90;;;;;;5050715;28;20033;-79
2021/11/23 09:43:52;;;;;;;10.13;9.67;;;6.10;71.30;;;;;;5050218;28;20588;-79
2021/11/23 09:46:18;;;;;;;10.07;9.57;;;6.10;71.20;;;;;;5066765;28;20393;-79
2021/11/23 09:48:45;;;;;;;11.07;10.57;;;6.30;71.10;;;;;;5052142;28;20037;-80
2021/11/23 09:51:23;;;;;;;9.87;9.40;;;6.50;70.60;;;;;;5050222;28;20039;-80
2021/11/23 09:53:49;;;;;;;13.43;12.83;;;6.60;70.20;;;;;;5050140;28;20059;-80
2021/11/23 09:56:15;;;;;;;14.60;13.90;;;6.80;69.90;;;;;;5050277;28;20029;-81
2021/11/23 09:58:42;;;;;;;12.10;11.50;;;7.00;69.40;;;;;;5050009;28;20048;-83
2021/11/23 10:01:09;;;;;;;22.00;20.97;;;7.00;69.00;;;;;;5049291;28;20037;-81
2021/11/23 10:03:35;;;;;;;24.47;23.30;;;7.00;68.80;;;;;;5050106;28;20085;-81
2021/11/23 10:06:11;;;;;;;11.50;11.00;;;7.00;68.40;;;;;;5049003;28;20370;-79
2021/11/23 10:08:38;;;;;;;18.60;17.63;;;7.00;68.30;;;;;;5051352;28;20040;-80
2021/11/23 10:11:05;;;;;;;10.63;10.13;;;7.00;68.20;;;;;;5049899;28;20029;-79
2021/11/23 10:13:52;;;;;;;31.70;30.17;;;7.00;67.90;;;;;;5050050;28;20035;-79
2021/11/23 10:16:19;;;;;;;14.93;14.23;;;7.00;67.70;;;;;;5049135;28;20044;-80
2021/11/23 10:18:49;;;;;;;15.30;14.60;;;7.00;67.80;;;;;;5034135;28;20036;-84
2021/11/23 10:21:15;;;;;;;62.47;59.33;;;7.00;67.60;;;;;;5048923;28;20047;-82
2021/11/23 10:23:47;;;;;;;62.90;59.60;;;7.10;67.30;;;;;;5049892;28;20386;-82
2021/11/23 10:26:21;;;;;;;10.63;10.13;;;7.10;67.10;;;;;;5049407;28;20036;-80
2021/11/23 10:28:53;;;;;;;11.10;10.60;;;7.10;66.80;;;;;;5048273;28;20037;-80
2021/11/23 10:31:20;;;;;;;10.60;10.10;;;7.30;66.90;;;;;;5032699;28;20386;-83
2021/11/23 10:33:47;;;;;;;31.30;29.70;;;7.60;66.40;;;;;;5051214;28;20028;-82
2021/11/23 10:36:16;;;;;;;11.67;11.07;;;7.80;65.50;;;;;;5032988;28;20375;-79
2021/11/23 10:38:42;;;;;;;31.00;29.50;;;7.90;65.30;;;;;;5028700;28;20045;-80
2021/11/23 10:41:13;;;;;;;12.83;12.23;;;7.90;65.10;;;;;;5038527;28;20504;-84
2021/11/23 10:43:40;;;;;;;31.40;29.75;;;7.90;65.00;;;;;;5033227;28;20041;-85
2021/11/23 10:46:17;;;;;;;12.87;12.27;;;7.90;65.10;;;;;;5050346;28;20041;-84
2021/11/23 10:48:58;;;;;;;30.80;29.30;;;7.90;65.10;;;;;;5049096;28;20143;-81
2021/11/23 10:51:25;;;;;;;30.47;29.03;;;7.90;64.70;;;;;;5067753;28;20025;-81
2021/11/23 10:53:53;;;;;;;13.73;13.10;;;8.00;64.60;;;;;;5083216;28;20029;-84
2021/11/23 10:56:20;;;;;;;40.43;38.30;;;7.90;64.30;;;;;;5047301;28;20505;-84
2021/11/23 10:58:47;;;;;;;12.55;11.95;;;7.90;64.40;;;;;;5031648;28;20508;-83
2021/11/23 11:01:15;;;;;;;17.40;16.60;;;7.90;64.40;;;;;;5044378;28;20029;-83
2021/11/23 11:03:41;;;;;;;16.73;15.93;;;7.90;64.50;;;;;;5050548;28;20389;-91
2021/11/23 11:06:07;;;;;;;39.33;37.30;;;7.90;64.60;;;;;;5048832;28;20025;-91
2021/11/23 11:08:39;;;;;;;13.23;12.63;;;7.90;64.40;;;;;;5047204;28;20044;-91
2021/11/23 11:11:05;;;;;;;;;;;8.00;64.30;;;;;;5047670;28;20512;-87
2021/11/23 11:13:32;;;;;;;12.80;12.20;;;8.10;64.30;;;;;;5050995;28;19909;-87
2021/11/23 11:15:59;;;;;;;13.57;12.98;;;8.20;64.60;;;;;;5064792;28;20045;-91
2021/11/23 11:18:25;;;;;;;12.35;11.75;;;8.30;63.50;;;;;;5050462;28;20179;-89
2021/11/23 11:20:55;;;;;;;12.80;12.20;;;8.30;63.40;;;;;;5047268;28;20449;-91
2021/11/23 11:23:24;;;;;;;17.98;17.13;;;8.30;63.20;;;;;;5081663;28;20033;-90
2021/11/23 11:28:49;;;;;;;22.58;21.50;;;8.40;62.70;;;;;;5039986;28;20052;-88
2021/11/23 11:31:46;;;;;;;19.23;18.25;;;8.40;62.80;;;;;;5043106;28;20040;-90
2021/11/23 11:34:26;;;;;;;12.95;12.35;;;8.60;62.50;;;;;;5037652;28;20032;-85
2021/11/23 11:37:16;;;;;;;13.73;13.10;;;8.70;62.40;;;;;;5046665;28;20033;-85
2021/11/23 11:39:52;;;;;;;51.30;48.53;;;8.70;62.10;;;;;;5048393;28;20029;-86
2021/11/23 11:42:21;;;;;;;53.42;50.72;;;8.80;61.50;;;;;;5043712;28;20425;-80
2021/11/23 11:44:53;;;;;;;12.65;12.05;;;8.70;61.10;;;;;;5050312;28;20040;-80
2021/11/23 11:47:30;;;;;;;17.15;16.35;;;8.80;61.20;;;;;;5078993;28;20049;-80
2021/11/23 11:50:00;;;;;;;110.72;105.00;;;8.80;61.10;;;;;;5062363;28;20045;-81
2021/11/23 11:52:28;;;;;;;73.28;69.55;;;8.90;61.00;;;;;;5048303;28;20025;-82
2021/11/23 11:55:13;;;;;;;33.80;32.20;;;8.90;60.60;;;;;;5085782;28;20037;-79
2021/11/23 11:57:41;;;;;;;25.58;24.27;;;8.90;60.30;;;;;;5051293;28;20396;-79
2021/11/23 12:00:23;;;;;;;13.07;12.48;;;8.90;60.30;;;;;;5051742;28;20037;-81
2021/11/23 12:02:49;;;;;;;29.48;28.08;;;9.00;60.40;;;;;;5053114;28;20044;-81
2021/11/23 12:05:16;;;;;;;17.45;16.65;;;9.10;60.40;;;;;;5068002;28;20036;-80
2021/11/23 12:07:43;;;;;;;15.32;14.63;;;9.20;60.10;;;;;;5068533;28;20029;-85
2021/11/23 12:10:22;;;;;;;19.80;18.90;;;9.20;59.90;;;;;;5050854;28;20389;-85
2021/11/23 12:12:48;;;;;;;29.83;28.33;;;9.30;59.50;;;;;;5050872;28;20397;-84
2021/11/23 12:15:21;;;;;;;20.10;19.17;;;9.30;59.40;;;;;;5050261;28;20090;-85
2021/11/23 12:18:09;;;;;;;14.35;13.65;;;9.30;59.40;;;;;;5050776;28;20021;-85
2021/11/23 12:21:03;;;;;;;46.35;44.03;;;9.40;59.40;;;;;;5067764;28;20045;-86
2021/11/23 12:23:39;;;;;;;215.73;201.02;;;9.50;59.40;;;;;;5051611;28;20021;-86
2021/11/23 12:26:13;;;;;;;15.23;14.45;;;9.50;59.00;;;;;;5051536;28;20025;-86
2021/11/23 12:28:40;;;;;;;25.45;24.25;;;9.50;58.50;;;;;;5051021;28;20036;-86
2021/11/23 12:31:11;;;;;;;22.80;21.73;;;9.50;58.50;;;;;;5050301;28;20033;-86
2021/11/23 12:33:58;;;;;;;24.40;23.25;;;9.60;58.40;;;;;;5050200;28;20413;-85
2021/11/23 12:36:24;;;;;;;13.88;13.27;;;9.60;58.10;;;;;;5051166;28;20059;-86
2021/11/23 12:38:52;;;;;;;13.07;12.48;;;9.60;58.00;;;;;;5050737;28;20363;-86
2021/11/23 12:41:21;;;;;;;28.40;27.02;;;9.60;57.90;;;;;;5050825;28;20029;-85
2021/11/23 12:43:48;;;;;;;14.82;14.13;;;9.70;57.90;;;;;;5049359;28;20025;-81
2021/11/23 12:46:22;;;;;;;12.30;11.70;;;9.80;57.60;;;;;;5049715;28;20036;-81
2021/11/23 12:48:50;;;;;;;18.98;18.08;;;9.80;57.40;;;;;;5051698;28;20041;-81
2021/11/23 12:51:28;;;;;;;16.02;15.27;;;9.80;57.50;;;;;;5050164;28;20048;-81
2021/11/23 12:54:06;;;;;;;24.88;23.42;;;9.70;57.40;;;;;;5050388;28;20032;-82